Time;durP1;ratioP1;P1;durP2;ratioP2;P2;SDS_P1;SDS_P2;PMS_P1;PMS_P2;Temp;Humidity;BMP_temperature;BMP_pressure;BME280_temperature;BME280_humidity;BME280_pressure;Samples;Min_cycle;Max_cycle;Signal;HPM_P1;HPM_P2
2021/12/11 00:02:27;;;;;;;27.10;12.47;;;-0.80;99.90;;;;;;5065479;28;20230;-72
2021/12/11 00:04:57;;;;;;;34.10;12.70;;;-0.50;99.90;;;;;;5056612;28;20191;-72
2021/12/11 00:07:28;;;;;;;28.13;12.43;;;-0.50;99.90;;;;;;5071369;28;20222;-72
2021/12/11 00:10:00;;;;;;;69.57;15.83;;;-0.60;99.90;;;;;;5067387;28;20213;-72
2021/12/11 00:12:32;;;;;;;32.87;12.47;;;-0.80;99.90;;;;;;5071445;28;20211;-72
2021/12/11 00:15:09;;;;;;;31.90;12.90;;;-0.60;99.90;;;;;;5073889;28;20208;-72
2021/12/11 00:17:36;;;;;;;38.07;12.20;;;-0.80;99.90;;;;;;5056658;28;20205;-72
2021/12/11 00:20:09;;;;;;;30.03;12.40;;;-0.70;99.90;;;;;;5069010;28;20207;-72
2021/12/11 00:22:36;;;;;;;32.40;12.70;;;-0.60;99.90;;;;;;5064622;28;20534;-72
2021/12/11 00:25:08;;;;;;;50.03;13.93;;;-0.50;99.90;;;;;;5068592;28;20202;-72
2021/12/11 00:27:38;;;;;;;29.50;13.30;;;-0.60;99.90;;;;;;5072372;28;20733;-72
2021/12/11 00:30:10;;;;;;;39.53;14.53;;;-0.50;99.90;;;;;;5078846;28;20203;-72
2021/12/11 00:32:38;;;;;;;24.77;12.07;;;-0.50;99.90;;;;;;5072480;28;20524;-72
2021/12/11 00:35:11;;;;;;;33.20;12.47;;;-0.40;99.90;;;;;;5074513;28;20206;-72
2021/12/11 00:37:38;;;;;;;34.27;11.83;;;-0.50;99.90;;;;;;5072925;28;20194;-72
2021/12/11 00:40:10;;;;;;;27.30;12.73;;;-0.50;99.90;;;;;;5074290;28;20659;-72
2021/12/11 00:42:38;;;;;;;27.50;14.20;;;-0.50;99.90;;;;;;5084317;28;20201;-72
2021/12/11 00:45:14;;;;;;;41.63;12.47;;;-0.40;99.90;;;;;;5085271;28;20203;-72
2021/12/11 00:47:46;;;;;;;26.37;11.83;;;-0.40;99.90;;;;;;5082054;28;20221;-72
2021/12/11 00:50:14;;;;;;;28.83;12.17;;;-0.30;99.90;;;;;;5066495;28;20194;-72
2021/12/11 00:52:47;;;;;;;37.23;12.60;;;-0.30;99.90;;;;;;5072463;28;20204;-72
2021/12/11 00:55:22;;;;;;;32.43;12.13;;;-0.50;99.90;;;;;;5074100;28;20217;-72
2021/12/11 00:58:00;;;;;;;25.33;12.07;;;-0.50;99.90;;;;;;5079363;28;20186;-72
2021/12/11 01:00:28;;;;;;;22.77;11.57;;;-0.50;99.90;;;;;;5081173;28;20194;-72
2021/12/11 01:02:56;;;;;;;27.33;11.93;;;-0.50;99.90;;;;;;5071811;28;20198;-72
2021/12/11 01:05:25;;;;;;;29.90;12.30;;;-0.50;99.90;;;;;;5073768;28;20194;-72
2021/12/11 01:07:53;;;;;;;22.83;11.80;;;-0.50;99.90;;;;;;5081743;28;20234;-72
2021/12/11 01:10:25;;;;;;;25.80;13.33;;;-0.30;99.90;;;;;;5087839;28;20198;-72
2021/12/11 01:12:59;;;;;;;28.23;13.60;;;-0.40;99.90;;;;;;5073434;28;20607;-72
2021/12/11 01:15:31;;;;;;;24.53;12.63;;;-0.50;99.90;;;;;;5075065;28;20231;-72
2021/12/11 01:18:11;;;;;;;25.63;13.40;;;-0.70;99.90;;;;;;5082075;28;20652;-72
2021/12/11 01:20:48;;;;;;;26.57;12.63;;;-0.50;99.90;;;;;;5072470;28;20237;-72
2021/12/11 01:23:28;;;;;;;32.40;15.13;;;-0.60;99.90;;;;;;5070774;28;20218;-72
2021/12/11 01:25:56;;;;;;;22.27;11.10;;;-0.50;99.90;;;;;;5071884;28;20613;-72
2021/12/11 01:28:23;;;;;;;25.43;12.30;;;-0.40;99.90;;;;;;5069836;28;20218;-72
2021/12/11 01:30:50;;;;;;;26.17;13.33;;;-0.30;99.90;;;;;;5056563;28;20198;-76
2021/12/11 01:33:18;;;;;;;26.07;13.13;;;-0.30;99.90;;;;;;5075274;28;20198;-67
2021/12/11 01:35:45;;;;;;;23.67;12.03;;;-0.30;99.90;;;;;;5071039;28;20194;-67
2021/12/11 01:38:15;;;;;;;25.40;13.57;;;-0.40;99.90;;;;;;5069737;28;20644;-67
2021/12/11 01:40:48;;;;;;;22.43;12.13;;;-0.30;99.90;;;;;;5070826;28;20194;-68
2021/12/11 01:43:16;;;;;;;23.90;12.70;;;-0.40;99.90;;;;;;5070538;28;20271;-67
2021/12/11 01:45:47;;;;;;;23.60;12.57;;;-0.40;99.90;;;;;;5080667;28;20598;-67
2021/12/11 01:48:17;;;;;;;22.83;12.50;;;-0.40;99.90;;;;;;5071060;28;20691;-68
2021/12/11 01:50:47;;;;;;;23.50;12.27;;;-0.40;99.90;;;;;;5069370;28;20225;-67
2021/12/11 01:53:21;;;;;;;21.20;10.73;;;-0.40;99.90;;;;;;5070080;28;20370;-67
2021/12/11 01:55:53;;;;;;;23.43;11.83;;;-0.50;99.90;;;;;;5072866;28;20209;-68
2021/12/11 01:58:28;;;;;;;20.23;10.70;;;-0.70;99.90;;;;;;5073284;28;20246;-67
2021/12/11 02:01:01;;;;;;;23.37;11.70;;;-0.60;99.90;;;;;;5072207;28;20559;-68
2021/12/11 02:03:31;;;;;;;19.97;11.17;;;-0.50;99.90;;;;;;5088610;28;20296;-67
2021/12/11 02:05:59;;;;;;;22.40;11.53;;;-0.50;99.90;;;;;;5075946;28;20234;-68
2021/12/11 02:08:29;;;;;;;21.50;10.53;;;-0.40;99.90;;;;;;5070408;28;20630;-68
2021/12/11 02:10:59;;;;;;;22.30;11.30;;;-0.50;99.90;;;;;;5056085;28;20207;-67
2021/12/11 02:13:39;;;;;;;22.30;11.97;;;-0.30;99.90;;;;;;5067797;28;20271;-68
2021/12/11 02:16:14;;;;;;;21.77;11.80;;;-0.40;99.90;;;;;;5077786;28;20247;-67
2021/12/11 02:18:45;;;;;;;22.30;11.20;;;-0.40;99.90;;;;;;5076316;28;20640;-67
2021/12/11 02:21:20;;;;;;;19.27;10.60;;;-0.40;99.90;;;;;;5072429;28;20206;-67
2021/12/11 02:23:57;;;;;;;23.20;11.80;;;-0.30;99.90;;;;;;5075885;28;20308;-68
2021/12/11 02:26:26;;;;;;;23.20;12.03;;;-0.30;99.90;;;;;;5074090;28;20213;-68
2021/12/11 02:29:00;;;;;;;22.30;12.23;;;-0.40;99.90;;;;;;5074500;28;20232;-68
2021/12/11 02:31:32;;;;;;;21.50;11.73;;;-0.40;99.90;;;;;;5074529;28;20256;-68
2021/12/11 02:34:09;;;;;;;23.87;12.60;;;-0.40;99.90;;;;;;5073039;28;20252;-68
2021/12/11 02:36:44;;;;;;;20.83;10.60;;;-0.50;99.90;;;;;;5072429;28;20206;-67
2021/12/11 02:39:17;;;;;;;20.73;11.17;;;-0.60;99.90;;;;;;5076465;28;20234;-68
2021/12/11 02:41:50;;;;;;;19.90;11.20;;;-0.50;99.90;;;;;;5072012;28;20198;-67
2021/12/11 02:44:23;;;;;;;23.43;12.57;;;-0.40;99.90;;;;;;5073750;28;20244;-67
2021/12/11 02:46:57;;;;;;;24.60;12.37;;;-0.30;99.90;;;;;;5072443;28;20247;-68
2021/12/11 02:49:29;;;;;;;27.47;12.83;;;-0.20;99.90;;;;;;5073684;28;20549;-67
2021/12/11 02:52:00;;;;;;;29.10;14.43;;;-0.40;99.90;;;;;;5082176;28;20304;-68
2021/12/11 02:54:33;;;;;;;22.97;12.63;;;-0.30;99.90;;;;;;5072802;28;20195;-68
2021/12/11 02:57:04;;;;;;;24.17;13.07;;;-0.30;99.90;;;;;;5074159;28;20221;-68
2021/12/11 02:59:39;;;;;;;29.53;13.97;;;-0.20;99.90;;;;;;5073279;28;20263;-68
2021/12/11 03:02:11;;;;;;;24.40;12.23;;;-0.30;99.90;;;;;;5072488;28;20201;-68
2021/12/11 03:04:45;;;;;;;28.53;13.27;;;-0.40;99.90;;;;;;5071153;28;20202;-68
2021/12/11 03:07:14;;;;;;;30.23;13.70;;;-0.30;99.90;;;;;;5073750;28;20546;-67
2021/12/11 03:09:52;;;;;;;30.23;13.57;;;-0.30;99.90;;;;;;5077329;28;20208;-67
2021/12/11 03:12:21;;;;;;;31.53;13.20;;;-0.50;99.90;;;;;;5072431;28;20268;-67
2021/12/11 03:14:49;;;;;;;28.73;13.53;;;-0.30;99.90;;;;;;5061818;28;20209;-68
2021/12/11 03:17:19;;;;;;;29.13;13.87;;;-0.30;99.90;;;;;;5081046;28;20310;-68
2021/12/11 03:19:47;;;;;;;48.43;13.43;;;-0.20;99.90;;;;;;5073936;28;20710;-67
2021/12/11 03:22:19;;;;;;;29.10;13.70;;;-0.40;99.90;;;;;;5071817;28;20207;-67
2021/12/11 03:24:49;;;;;;;49.23;13.30;;;-0.30;99.90;;;;;;5068170;28;20251;-68
2021/12/11 03:27:16;;;;;;;29.33;13.07;;;-0.40;99.90;;;;;;5072438;28;20248;-67
2021/12/11 03:29:44;;;;;;;38.33;14.23;;;-0.40;99.90;;;;;;5075688;28;20217;-67
2021/12/11 03:32:12;;;;;;;31.23;14.17;;;-0.30;99.90;;;;;;5079328;28;20264;-68
2021/12/11 03:34:40;;;;;;;26.53;13.83;;;-0.30;99.90;;;;;;5084828;28;20209;-68
2021/12/11 03:37:10;;;;;;;32.87;14.80;;;-0.30;99.90;;;;;;5082283;28;20255;-68
2021/12/11 03:39:40;;;;;;;115.00;17.93;;;-0.30;99.90;;;;;;5091982;28;20201;-67
2021/12/11 03:42:13;;;;;;;41.33;13.97;;;-0.50;99.90;;;;;;5070657;28;20199;-68
2021/12/11 03:44:42;;;;;;;33.10;14.20;;;-0.40;99.90;;;;;;5071583;28;20645;-68
2021/12/11 03:47:14;;;;;;;79.80;14.97;;;-0.30;99.90;;;;;;5071381;28;20287;-68
2021/12/11 03:49:41;;;;;;;52.17;15.13;;;-0.50;99.90;;;;;;5055196;28;20371;-68
2021/12/11 03:52:10;;;;;;;27.93;13.30;;;-0.50;99.90;;;;;;5074897;28;20255;-67
2021/12/11 03:54:40;;;;;;;28.37;13.37;;;-0.40;99.90;;;;;;5091126;28;20233;-68
2021/12/11 03:57:10;;;;;;;35.67;13.63;;;-0.40;99.90;;;;;;5070146;28;20230;-68
2021/12/11 03:59:38;;;;;;;28.07;12.90;;;-0.40;99.90;;;;;;5068235;28;20646;-67
2021/12/11 04:02:09;;;;;;;24.10;11.87;;;-0.30;99.90;;;;;;5070091;28;20203;-67
2021/12/11 04:04:39;;;;;;;32.03;13.57;;;-0.30;99.90;;;;;;5074157;28;20202;-67
2021/12/11 04:07:09;;;;;;;37.33;13.47;;;-0.30;99.90;;;;;;5071941;28;20252;-67
2021/12/11 04:09:37;;;;;;;30.50;13.33;;;-0.40;99.90;;;;;;5069301;28;20471;-67
2021/12/11 04:12:08;;;;;;;33.53;12.63;;;-0.30;99.90;;;;;;5087079;28;20459;-68
2021/12/11 04:14:38;;;;;;;29.80;14.03;;;-0.30;99.90;;;;;;5075874;28;20206;-67
2021/12/11 04:17:08;;;;;;;30.90;13.23;;;-0.40;99.90;;;;;;5068393;28;20394;-67
2021/12/11 04:19:35;;;;;;;45.53;13.77;;;-0.40;99.90;;;;;;5083358;28;20198;-68
2021/12/11 04:22:04;;;;;;;30.27;13.53;;;-0.40;99.90;;;;;;5071589;28;20198;-68
2021/12/11 04:24:33;;;;;;;27.43;13.23;;;-0.40;99.90;;;;;;5071424;28;20279;-68
2021/12/11 04:27:04;;;;;;;33.27;13.23;;;-0.40;99.90;;;;;;5071953;28;20607;-67
2021/12/11 04:29:31;;;;;;;31.00;13.27;;;-0.50;99.90;;;;;;5080710;28;20703;-67
2021/12/11 04:32:02;;;;;;;36.27;12.40;;;-0.50;99.90;;;;;;5071753;28;20259;-67
2021/12/11 04:34:29;;;;;;;26.40;12.13;;;-0.50;99.90;;;;;;5069946;28;20336;-68
2021/12/11 04:37:01;;;;;;;25.90;12.57;;;-0.50;99.90;;;;;;5091744;28;20206;-68
2021/12/11 04:39:34;;;;;;;36.87;13.30;;;-0.60;99.90;;;;;;5066471;28;20228;-68
2021/12/11 04:42:06;;;;;;;28.87;13.10;;;-0.50;99.90;;;;;;5067694;28;20217;-67
2021/12/11 04:44:40;;;;;;;36.90;13.50;;;-0.50;99.90;;;;;;5075382;28;20680;-67
2021/12/11 04:47:15;;;;;;;31.00;13.23;;;-0.50;99.90;;;;;;5069623;28;20214;-67
2021/12/11 04:49:49;;;;;;;29.63;13.23;;;-0.50;99.90;;;;;;5070745;28;20491;-67
2021/12/11 04:52:18;;;;;;;28.57;13.10;;;-0.50;99.90;;;;;;5071608;28;20660;-67
2021/12/11 04:54:58;;;;;;;37.00;13.77;;;-0.40;99.90;;;;;;5073060;28;20209;-67
2021/12/11 05:00:31;;;;;;;26.40;13.23;;;-0.40;99.90;;;;;;5058985;28;20204;-68
2021/12/11 05:06:02;;;;;;;28.77;13.43;;;-0.40;99.90;;;;;;5011746;28;20319;-68
2021/12/11 05:09:12;;;;;;;25.17;13.87;;;-0.40;99.90;;;;;;5073606;28;20265;-68
2021/12/11 05:11:40;;;;;;;26.83;13.53;;;-0.40;99.90;;;;;;5057789;28;20194;-76
2021/12/11 05:14:09;;;;;;;27.57;13.60;;;-0.40;99.90;;;;;;5075621;28;20209;-76
2021/12/11 05:16:37;;;;;;;36.60;13.47;;;-0.50;99.90;;;;;;5051622;28;20211;-76
2021/12/11 05:19:06;;;;;;;32.10;14.20;;;-0.50;99.90;;;;;;5082860;28;20255;-76
2021/12/11 05:21:34;;;;;;;25.97;13.13;;;-0.50;99.90;;;;;;5071239;28;20195;-76
2021/12/11 05:24:05;;;;;;;26.77;13.07;;;-0.40;99.90;;;;;;5074068;28;20202;-76
2021/12/11 05:26:33;;;;;;;28.03;13.43;;;-0.40;99.90;;;;;;5067577;28;20221;-76
2021/12/11 05:29:00;;;;;;;24.67;13.30;;;-0.40;99.90;;;;;;5067518;28;20229;-76
2021/12/11 05:31:27;;;;;;;29.03;12.87;;;-0.40;99.90;;;;;;5070544;28;20194;-76
2021/12/11 05:33:54;;;;;;;25.47;13.67;;;-0.40;99.90;;;;;;5069833;28;20198;-76
2021/12/11 05:36:23;;;;;;;31.63;13.33;;;-0.30;99.90;;;;;;5070916;28;20202;-75
2021/12/11 05:38:51;;;;;;;28.47;13.10;;;-0.30;99.90;;;;;;5077201;28;20194;-75
2021/12/11 05:41:21;;;;;;;28.47;13.87;;;-0.30;99.90;;;;;;5073482;28;20293;-76
2021/12/11 05:43:49;;;;;;;25.20;12.43;;;-0.30;99.90;;;;;;5070511;28;20260;-76
2021/12/11 05:46:18;;;;;;;24.80;12.53;;;-0.40;99.90;;;;;;5069413;28;20194;-76
2021/12/11 05:48:48;;;;;;;22.03;11.97;;;-0.30;99.90;;;;;;5064372;28;20284;-77
2021/12/11 05:51:20;;;;;;;23.57;12.77;;;-0.30;99.90;;;;;;5050996;28;20660;-76
2021/12/11 05:53:50;;;;;;;24.40;13.00;;;-0.30;99.90;;;;;;5064419;28;20206;-76
2021/12/11 05:56:18;;;;;;;21.90;12.30;;;-0.20;99.90;;;;;;5064623;28;20225;-76
2021/12/11 05:58:56;;;;;;;22.03;11.17;;;-0.30;99.90;;;;;;5072695;28;20244;-76
2021/12/11 06:01:30;;;;;;;23.53;11.93;;;-0.20;99.90;;;;;;5071726;28;20256;-76
2021/12/11 06:03:58;;;;;;;25.30;12.93;;;-0.20;99.90;;;;;;5068894;28;20244;-76
2021/12/11 06:06:25;;;;;;;22.60;11.57;;;-0.20;99.90;;;;;;5068016;28;20202;-76
2021/12/11 06:08:54;;;;;;;23.27;12.33;;;-0.20;99.90;;;;;;5079139;28;20687;-76
2021/12/11 06:11:21;;;;;;;24.43;12.80;;;-0.20;99.90;;;;;;5057163;28;20275;-76
2021/12/11 06:13:48;;;;;;;23.80;12.57;;;-0.10;99.90;;;;;;5073368;28;20199;-76
2021/12/11 06:16:15;;;;;;;26.00;13.33;;;-0.10;99.90;;;;;;5069196;28;20252;-76
2021/12/11 06:18:44;;;;;;;24.07;12.97;;;-0.20;99.90;;;;;;5072067;28;20287;-77
2021/12/11 06:21:12;;;;;;;21.87;11.63;;;-0.20;99.90;;;;;;5092521;28;20584;-76
2021/12/11 06:23:39;;;;;;;23.63;12.23;;;-0.20;99.90;;;;;;5079370;28;20199;-76
2021/12/11 06:26:08;;;;;;;23.30;11.73;;;-0.20;99.90;;;;;;5062523;28;20203;-76
2021/12/11 06:28:35;;;;;;;29.30;15.03;;;-0.20;99.90;;;;;;5075340;28;20355;-77
2021/12/11 06:31:03;;;;;;;28.40;15.17;;;-0.20;99.90;;;;;;5074493;28;20194;-76
2021/12/11 06:33:32;;;;;;;21.50;11.00;;;-0.10;99.90;;;;;;5070290;28;20197;-76
2021/12/11 06:36:01;;;;;;;21.20;10.77;;;-0.10;99.90;;;;;;5059639;28;20207;-75
2021/12/11 06:38:31;;;;;;;20.33;11.13;;;0.00;99.90;;;;;;5065959;28;20206;-76
2021/12/11 06:40:59;;;;;;;21.50;11.27;;;0.00;99.90;;;;;;5058698;28;20607;-76
2021/12/11 06:43:28;;;;;;;19.67;10.60;;;-0.10;99.90;;;;;;5072699;28;20206;-76
2021/12/11 06:45:55;;;;;;;22.60;11.13;;;-0.10;99.90;;;;;;5073860;28;20249;-76
2021/12/11 06:48:23;;;;;;;21.83;10.47;;;0.00;99.90;;;;;;5072486;28;20202;-76
2021/12/11 06:50:51;;;;;;;20.07;10.77;;;0.00;99.90;;;;;;5073440;28;20191;-76
2021/12/11 06:53:25;;;;;;;21.97;11.23;;;-0.10;99.90;;;;;;5071392;28;20246;-76
2021/12/11 06:55:52;;;;;;;21.13;11.53;;;-0.10;99.90;;;;;;5073514;28;20198;-75
2021/12/11 06:58:19;;;;;;;19.47;10.03;;;-0.10;99.90;;;;;;5077943;28;20433;-76
2021/12/11 07:00:48;;;;;;;19.20;10.43;;;-0.20;99.90;;;;;;5073210;28;20211;-76
2021/12/11 07:03:15;;;;;;;20.83;10.43;;;-0.10;99.90;;;;;;5070218;28;20669;-76
2021/12/11 07:05:42;;;;;;;18.70;10.57;;;-0.20;99.90;;;;;;5073922;28;20191;-76
2021/12/11 07:08:12;;;;;;;24.37;11.30;;;-0.10;99.90;;;;;;5068523;28;20664;-76
2021/12/11 07:10:39;;;;;;;20.13;10.37;;;-0.20;99.90;;;;;;5073526;28;20214;-76
2021/12/11 07:13:07;;;;;;;20.13;11.30;;;-0.10;99.90;;;;;;5079218;28;20220;-76
2021/12/11 07:15:35;;;;;;;21.00;10.80;;;0.00;99.90;;;;;;5073973;28;20263;-76
2021/12/11 07:18:04;;;;;;;20.63;10.63;;;0.00;99.90;;;;;;5072329;28;20263;-76
2021/12/11 07:20:31;;;;;;;21.70;12.00;;;0.00;99.90;;;;;;5084239;28;20205;-76
2021/12/11 07:22:59;;;;;;;21.60;11.53;;;0.00;99.90;;;;;;5072946;28;20194;-76
2021/12/11 07:25:32;;;;;;;23.93;11.07;;;0.10;99.90;;;;;;5080310;28;20209;-76
2021/12/11 07:28:03;;;;;;;20.07;10.93;;;0.10;99.90;;;;;;5087556;28;20194;-76
2021/12/11 07:30:31;;;;;;;20.70;10.57;;;0.10;99.90;;;;;;5068346;28;20214;-76
2021/12/11 07:33:00;;;;;;;20.17;11.13;;;0.10;99.90;;;;;;5073670;28;20238;-76
2021/12/11 07:35:29;;;;;;;24.00;10.97;;;0.10;99.90;;;;;;5071554;28;20398;-76
2021/12/11 07:37:56;;;;;;;20.50;10.80;;;0.20;99.90;;;;;;5081493;28;20199;-76
2021/12/11 07:40:28;;;;;;;19.57;10.73;;;0.10;99.90;;;;;;5081399;28;20194;-76
2021/12/11 07:42:55;;;;;;;22.70;11.57;;;0.10;99.90;;;;;;5070461;28;20199;-75
2021/12/11 07:45:24;;;;;;;19.93;11.07;;;0.20;99.90;;;;;;5072400;28;20240;-76
2021/12/11 07:47:51;;;;;;;22.37;11.27;;;0.10;99.90;;;;;;5059263;28;20272;-75
2021/12/11 07:50:19;;;;;;;20.07;11.03;;;0.20;99.90;;;;;;5066192;28;20226;-76
2021/12/11 07:52:47;;;;;;;20.20;10.47;;;0.20;99.90;;;;;;5072574;28;20256;-76
2021/12/11 07:55:15;;;;;;;19.17;11.23;;;0.20;99.90;;;;;;5071743;28;20191;-76
2021/12/11 07:57:42;;;;;;;18.93;11.23;;;0.30;99.90;;;;;;5072741;28;20688;-76
2021/12/11 08:00:13;;;;;;;22.07;11.37;;;0.30;99.90;;;;;;5055264;28;20252;-75
2021/12/11 08:02:40;;;;;;;18.57;10.47;;;0.30;99.90;;;;;;5065456;28;20199;-76
2021/12/11 08:05:08;;;;;;;19.83;10.50;;;0.30;99.90;;;;;;5092523;28;20202;-76
2021/12/11 08:07:36;;;;;;;19.90;11.67;;;0.30;99.90;;;;;;5084447;28;20191;-75
2021/12/11 08:10:05;;;;;;;17.77;10.57;;;0.20;99.90;;;;;;5072534;28;20226;-77
2021/12/11 08:12:32;;;;;;;18.93;10.40;;;0.10;99.90;;;;;;5070854;28;20530;-76
2021/12/11 08:14:59;;;;;;;23.07;12.67;;;0.10;99.90;;;;;;5070783;28;20252;-76
2021/12/11 08:17:26;;;;;;;20.87;10.93;;;0.10;99.90;;;;;;5065356;28;20275;-76
2021/12/11 08:19:53;;;;;;;21.33;11.20;;;0.00;99.90;;;;;;5072764;28;20649;-76
2021/12/11 08:22:21;;;;;;;20.80;10.73;;;0.00;99.90;;;;;;5074243;28;20194;-76
2021/12/11 08:24:48;;;;;;;20.50;11.07;;;0.00;99.90;;;;;;5081302;28;20294;-76
2021/12/11 08:27:20;;;;;;;20.83;10.77;;;0.00;99.90;;;;;;5074115;28;20214;-76
2021/12/11 08:29:50;;;;;;;21.40;10.47;;;0.00;99.90;;;;;;5079305;28;20225;-76
2021/12/11 08:32:18;;;;;;;20.57;11.80;;;0.10;99.90;;;;;;5073607;28;20673;-76
2021/12/11 08:34:47;;;;;;;21.23;10.93;;;0.30;99.90;;;;;;5075311;28;20578;-76
2021/12/11 08:37:16;;;;;;;20.53;11.67;;;0.70;99.90;;;;;;5079930;28;20601;-76
2021/12/11 08:39:44;;;;;;;20.97;10.97;;;0.50;99.90;;;;;;5076980;28;20201;-76
2021/12/11 08:42:14;;;;;;;20.57;11.33;;;0.40;99.90;;;;;;5072843;28;20653;-76
2021/12/11 08:44:50;;;;;;;21.90;12.33;;;0.40;99.90;;;;;;5070420;28;20608;-67
2021/12/11 08:47:19;;;;;;;23.53;12.37;;;0.40;99.90;;;;;;5070568;28;20202;-76
2021/12/11 08:49:46;;;;;;;20.90;11.57;;;0.70;99.90;;;;;;5070196;28;20688;-76
2021/12/11 08:52:18;;;;;;;21.90;11.77;;;0.90;99.90;;;;;;5074221;28;20190;-76
2021/12/11 08:54:45;;;;;;;21.90;11.87;;;1.20;99.90;;;;;;5081521;28;20710;-76
2021/12/11 08:57:15;;;;;;;25.80;13.83;;;1.10;99.90;;;;;;5085865;28;20198;-76
2021/12/11 08:59:46;;;;;;;22.43;12.73;;;1.40;99.90;;;;;;5073605;28;20197;-67
2021/12/11 09:02:17;;;;;;;24.90;13.03;;;1.40;99.90;;;;;;5078062;28;20210;-67
2021/12/11 09:04:53;;;;;;;22.40;12.03;;;1.20;99.90;;;;;;5069911;28;20205;-68
2021/12/11 09:07:25;;;;;;;22.13;12.37;;;1.10;99.90;;;;;;5072254;28;20204;-68
2021/12/11 09:09:56;;;;;;;20.93;12.23;;;1.20;99.90;;;;;;5071568;28;20210;-68
2021/12/11 09:12:26;;;;;;;26.37;13.63;;;1.40;99.90;;;;;;5071591;28;20206;-68
2021/12/11 09:15:02;;;;;;;21.57;12.27;;;1.70;99.90;;;;;;5074042;28;20198;-68
2021/12/11 09:17:33;;;;;;;22.60;12.50;;;1.70;99.90;;;;;;5071656;28;20743;-68
2021/12/11 09:20:04;;;;;;;21.20;12.10;;;1.50;99.90;;;;;;5073275;28;20213;-68
2021/12/11 09:22:36;;;;;;;23.47;12.67;;;1.30;99.90;;;;;;5076532;28;20229;-68
2021/12/11 09:25:09;;;;;;;22.73;13.00;;;1.20;99.90;;;;;;5079445;28;20198;-68
2021/12/11 09:27:41;;;;;;;23.93;13.10;;;1.40;99.90;;;;;;5078629;28;20568;-67
2021/12/11 09:30:13;;;;;;;26.63;13.10;;;1.70;99.90;;;;;;5077327;28;20226;-67
2021/12/11 09:32:44;;;;;;;26.80;13.23;;;2.40;99.90;;;;;;5078988;28;20207;-67
2021/12/11 09:35:18;;;;;;;23.03;12.87;;;2.30;99.90;;;;;;5077245;28;20206;-67
2021/12/11 09:37:47;;;;;;;25.57;12.73;;;2.20;99.90;;;;;;5073913;28;20209;-67
2021/12/11 09:40:24;;;;;;;23.80;13.70;;;2.40;99.90;;;;;;5076519;28;20559;-67
2021/12/11 09:42:51;;;;;;;24.73;13.17;;;2.00;99.90;;;;;;5078027;28;20198;-76
2021/12/11 09:45:24;;;;;;;23.13;13.30;;;1.90;99.90;;;;;;5072592;28;20206;-76
2021/12/11 09:47:57;;;;;;;23.63;13.40;;;1.90;99.90;;;;;;5076599;28;20206;-75
2021/12/11 09:50:29;;;;;;;25.73;13.63;;;1.90;99.90;;;;;;5074266;28;20226;-76
2021/12/11 09:52:56;;;;;;;25.03;13.80;;;2.00;99.90;;;;;;5069400;28;20706;-76
2021/12/11 09:55:27;;;;;;;23.97;13.80;;;2.10;99.90;;;;;;5076892;28;20565;-76
2021/12/11 09:57:57;;;;;;;24.20;13.93;;;2.10;99.90;;;;;;5080118;28;20268;-76
2021/12/11 10:00:29;;;;;;;27.43;14.27;;;2.20;99.90;;;;;;5076465;28;20198;-76
2021/12/11 10:02:57;;;;;;;27.47;14.77;;;2.30;99.90;;;;;;5078073;28;20202;-75
2021/12/11 10:05:31;;;;;;;24.47;13.10;;;2.40;99.90;;;;;;5076415;28;20214;-76
2021/12/11 10:08:25;;;;;;;23.93;13.23;;;2.40;99.90;;;;;;5073904;28;20619;-76
2021/12/11 10:10:53;;;;;;;23.93;13.63;;;2.50;99.90;;;;;;5076865;28;20688;-76
2021/12/11 10:13:20;;;;;;;26.47;15.37;;;2.50;99.90;;;;;;5073550;28;20202;-76
2021/12/11 10:15:48;;;;;;;27.27;15.43;;;2.60;99.90;;;;;;5073302;28;20214;-76
2021/12/11 10:18:20;;;;;;;31.80;18.07;;;3.00;99.90;;;;;;5069469;28;20194;-76
2021/12/11 10:20:51;;;;;;;26.63;13.90;;;3.20;99.90;;;;;;5073503;28;20202;-76
2021/12/11 10:23:22;;;;;;;27.67;13.80;;;3.10;99.90;;;;;;5071234;28;20206;-76
2021/12/11 10:25:52;;;;;;;25.73;14.90;;;3.00;99.90;;;;;;5074726;28;20206;-76
2021/12/11 10:28:23;;;;;;;26.00;14.77;;;3.00;99.90;;;;;;5067765;28;20230;-76
2021/12/11 10:30:55;;;;;;;24.80;14.13;;;2.90;99.90;;;;;;5079187;28;20226;-76
2021/12/11 10:33:29;;;;;;;23.60;13.03;;;2.80;99.90;;;;;;5075077;28;20204;-76
2021/12/11 10:36:00;;;;;;;25.83;13.70;;;2.80;99.90;;;;;;5075137;28;20221;-76
2021/12/11 10:38:28;;;;;;;25.57;14.23;;;2.80;99.90;;;;;;5081636;28;20205;-76
2021/12/11 10:40:59;;;;;;;23.70;13.17;;;2.90;99.90;;;;;;5071761;28;20191;-76
2021/12/11 10:43:30;;;;;;;25.03;13.53;;;2.90;99.90;;;;;;5071426;28;20193;-76
2021/12/11 10:46:00;;;;;;;27.57;14.40;;;3.00;99.90;;;;;;5075616;28;20211;-76
2021/12/11 10:48:32;;;;;;;24.20;13.67;;;3.00;99.90;;;;;;5071817;28;20202;-76
2021/12/11 10:51:03;;;;;;;28.50;14.70;;;2.90;99.90;;;;;;5076890;28;20284;-76
2021/12/11 10:53:32;;;;;;;23.67;13.77;;;2.80;99.90;;;;;;5074829;28;20210;-74
2021/12/11 10:56:02;;;;;;;25.50;14.37;;;2.80;99.90;;;;;;5071701;28;20210;-75
2021/12/11 10:58:31;;;;;;;23.20;13.87;;;2.80;99.90;;;;;;5075581;28;20209;-75
2021/12/11 11:01:05;;;;;;;25.80;15.30;;;2.80;99.90;;;;;;5076779;28;20230;-75
2021/12/11 11:03:35;;;;;;;24.97;13.60;;;2.80;99.90;;;;;;5076889;28;20210;-75
2021/12/11 11:06:02;;;;;;;25.07;13.97;;;2.80;99.90;;;;;;5081665;28;20208;-75
2021/12/11 11:08:31;;;;;;;26.53;14.23;;;2.80;99.90;;;;;;5079146;28;20202;-75
2021/12/11 11:11:02;;;;;;;25.63;13.90;;;2.80;99.90;;;;;;5078537;28;20222;-75
2021/12/11 11:13:30;;;;;;;23.03;13.67;;;2.80;99.90;;;;;;5077812;28;20206;-74
2021/12/11 11:15:57;;;;;;;25.97;14.30;;;2.90;99.90;;;;;;5080851;28;20557;-74
2021/12/11 11:18:28;;;;;;;23.47;13.30;;;2.90;99.90;;;;;;5079257;28;20669;-75
2021/12/11 11:20:58;;;;;;;23.83;14.07;;;3.00;99.90;;;;;;5076255;28;20675;-75
2021/12/11 11:23:25;;;;;;;26.50;13.40;;;3.00;99.90;;;;;;5074851;28;20572;-74
2021/12/11 11:25:56;;;;;;;33.97;13.53;;;3.10;99.90;;;;;;5075036;28;20637;-75
2021/12/11 11:28:26;;;;;;;23.43;12.87;;;3.10;99.90;;;;;;5072294;28;20198;-74
2021/12/11 11:30:56;;;;;;;27.53;14.97;;;3.00;99.90;;;;;;5075616;28;20221;-74
2021/12/11 11:33:25;;;;;;;23.93;14.33;;;2.90;99.90;;;;;;5074423;28;20206;-75
2021/12/11 11:35:53;;;;;;;21.67;13.70;;;2.90;99.90;;;;;;5078024;28;20657;-74
2021/12/11 11:38:24;;;;;;;26.07;14.30;;;3.00;99.90;;;;;;5075298;28;20526;-74
2021/12/11 11:40:55;;;;;;;23.13;13.60;;;3.00;99.90;;;;;;5076649;28;20202;-74
2021/12/11 11:43:24;;;;;;;22.27;13.87;;;3.10;99.90;;;;;;5078066;28;20205;-74
2021/12/11 11:45:52;;;;;;;24.50;14.13;;;3.00;99.90;;;;;;5079712;28;20205;-74
2021/12/11 11:48:20;;;;;;;24.73;14.13;;;3.10;99.90;;;;;;5072118;28;20206;-74
2021/12/11 11:50:50;;;;;;;23.00;13.13;;;3.10;99.90;;;;;;5077171;28;20222;-74
2021/12/11 11:53:24;;;;;;;23.43;14.27;;;3.60;99.90;;;;;;5075230;28;20225;-74
2021/12/11 11:55:53;;;;;;;22.43;12.77;;;5.20;99.90;;;;;;5077174;28;20195;-74
2021/12/11 11:58:20;;;;;;;20.93;12.40;;;5.00;99.90;;;;;;5079644;28;20213;-74
2021/12/11 12:00:52;;;;;;;22.27;13.20;;;4.50;99.90;;;;;;5073364;28;20649;-74
2021/12/11 12:03:23;;;;;;;23.27;12.90;;;4.60;99.90;;;;;;5077467;28;20629;-73
2021/12/11 12:05:53;;;;;;;21.87;12.47;;;4.40;99.90;;;;;;5080421;28;20199;-73
2021/12/11 12:08:21;;;;;;;20.77;12.40;;;4.40;99.90;;;;;;5080105;28;20206;-73
2021/12/11 12:10:51;;;;;;;24.27;13.43;;;4.30;99.90;;;;;;5076830;28;20703;-73
2021/12/11 12:13:19;;;;;;;20.87;12.20;;;4.10;99.90;;;;;;5074067;28;20210;-73
2021/12/11 12:15:50;;;;;;;20.77;13.47;;;3.90;99.90;;;;;;5081066;28;20649;-73
2021/12/11 12:18:18;;;;;;;23.53;13.80;;;3.90;99.90;;;;;;5074316;28;20216;-74
2021/12/11 12:20:47;;;;;;;23.07;13.53;;;3.80;99.90;;;;;;5080143;28;20198;-74
2021/12/11 12:23:18;;;;;;;22.27;12.93;;;4.10;99.90;;;;;;5081524;28;20683;-73
2021/12/11 12:25:46;;;;;;;21.17;12.70;;;4.30;99.90;;;;;;5074669;28;20198;-73
2021/12/11 12:28:13;;;;;;;23.33;13.50;;;4.10;99.90;;;;;;5083892;28;20212;-73
2021/12/11 12:30:45;;;;;;;22.70;13.17;;;4.30;99.90;;;;;;5077170;28;20237;-73
2021/12/11 12:33:14;;;;;;;21.93;12.17;;;4.60;99.90;;;;;;5072686;28;20217;-73
2021/12/11 12:35:42;;;;;;;20.97;12.57;;;4.50;99.90;;;;;;5074717;28;20214;-73
2021/12/11 12:38:12;;;;;;;21.83;13.20;;;4.40;99.90;;;;;;5081121;28;20229;-73
2021/12/11 12:40:48;;;;;;;22.63;12.13;;;4.70;99.90;;;;;;5072130;28;20200;-73
2021/12/11 12:43:42;;;;;;;23.77;13.07;;;5.40;99.90;;;;;;5075763;28;20251;-74
2021/12/11 12:46:07;;;;;;;22.57;12.70;;;5.50;99.90;;;;;;5079461;28;20202;-73
2021/12/11 12:48:34;;;;;;;21.70;13.10;;;5.20;99.90;;;;;;5078231;28;20715;-73
2021/12/11 12:51:05;;;;;;;20.83;12.70;;;4.70;99.90;;;;;;5074179;28;20221;-74
2021/12/11 12:53:34;;;;;;;21.23;12.83;;;4.40;99.90;;;;;;5078044;28;20201;-73